logo
Rechercher aéroport 
image banner adimage banner adimage banner ad
image banner ad

MGZA - Zacapa

Situé à Zacapa, Guatemala

ICAO - MGZA, IATA -

Données fournies par Airmate  

Information générale

Coordonnées: N14°57'36" W89°32'20"
Élévation : 626 feet MSL.
Variation magnétique : 0° East
Voir autres Aéroports à Zacapa

Données opérationnelles

Special qualification required
Heure actuelle UTC:
Heure actuelle locale:
Météo à : - ( 0 km )
METAR: URMG 232024Z 33010MPS 3600 -TSRA SCT014 BKN025CB OVC076 21/20 Q1006 R26/090070 TEMPO VRB08G23MPS 0300 +TSRAGR BKN002 BKN020CB RMK QFE740/0987
Voir NOTAMs / SUP AIP / TFR affectant cet aéroport [VIEW]
Fréquences de communication: [VIEW]

Pistes:

Identifiant RWYQFULongueur (ft)Largeur (ft)SurfaceLDA (ft)
15151°329445ASPH
33331°329445ASPH

Coordonnées de l'aéroport

Adresse: Zacapa Guatemala

Vue satellite de MGZA